Главная страница
METAR-TAF:

METAR-TAF

Аэропорты :

Upshur County Regional Airport

Buckhannon, Западная Виргиния, США

широта: 39-00N, долгота: 080-16W, высота над уровнем моря: 498 м

Текущие метеонаблюдения

Эта сводка был подготовлена 20 минут назад, в 07:55 UTC
Ветер 7 Узел от юго-восточный
Температура 0°C
Влажность 43%
Давление 1021 hPa
Видимость: 16.1 км
ясное небо

METAR: KW22 170755Z AUTO 13007KT 10SM CLR 00/M11 A3015 RMK AO2

Время: 03:15 (08:15 UTC)


TAF: отсутствует

Метеонаблюдения и прогнозы для более 4000 аэропортов (сводки METAR и TAF).

Имеющиеся станции представлены на карте желтыми и красными точками.

Чтобы увидеть название станции, наведите на нее мышь.

Затем щелкните, чтобы увидеть метеонаблюдения и метеопрогнозы.

Управление картой: чтобы увеличить масштаб, щелкните зеленые кнопки с черным крестиком; чтобы уменьшить масштаб, щелкните зеленую кнопку с тире; для просмотра соседних карт щелкайте зеленые стрелки.


METAR-TAF: